createdAt,value
2019-02-02T00:00:43.631Z,11.75
2019-02-02T00:01:52.451Z,11.43
2019-02-02T00:02:57.637Z,11.20
2019-02-02T00:04:03.284Z,10.58
2019-02-02T00:05:08.890Z,11.80
2019-02-02T00:06:13.982Z,12.35
2019-02-02T00:07:18.993Z,12.10
2019-02-02T00:08:24.265Z,12.50
2019-02-02T00:09:29.631Z,11.00
2019-02-02T00:10:35.755Z,11.78
2019-02-02T00:11:41.128Z,12.05
2019-02-02T00:12:46.204Z,11.20
2019-02-02T00:13:51.250Z,11.80
2019-02-02T00:14:56.297Z,11.45
2019-02-02T00:16:01.770Z,11.43
2019-02-02T00:17:07.272Z,11.63
2019-02-02T00:18:12.657Z,12.03
2019-02-02T00:19:17.971Z,13.20
2019-02-02T00:20:23.157Z,11.65
2019-02-02T00:21:28.358Z,12.80
2019-02-02T00:22:33.376Z,11.60
2019-02-02T00:23:38.485Z,11.68
2019-02-02T00:24:44.009Z,10.70
2019-02-02T00:25:49.384Z,12.23
2019-02-02T00:26:54.894Z,12.10
2019-02-02T00:28:00.361Z,12.43
2019-02-02T00:29:05.753Z,11.75
2019-02-02T00:30:13.145Z,12.43
2019-02-02T00:31:18.153Z,12.65
2019-02-02T00:32:23.175Z,12.28
2019-02-02T00:33:28.175Z,12.28
2019-02-02T00:34:33.463Z,11.50
2019-02-02T00:35:38.612Z,11.40
2019-02-02T00:36:43.574Z,12.93
2019-02-02T00:37:48.890Z,11.50
2019-02-02T00:38:54.208Z,11.80
2019-02-02T00:39:59.460Z,13.35
2019-02-02T00:41:04.577Z,12.70
2019-02-02T00:42:09.938Z,11.83
2019-02-02T00:43:15.431Z,11.73
2019-02-02T00:44:20.439Z,11.38
2019-02-02T00:45:25.548Z,12.18
2019-02-02T00:46:30.894Z,11.45
2019-02-02T00:47:36.278Z,11.55
2019-02-02T00:48:41.597Z,12.80
2019-02-02T00:49:46.904Z,12.70
2019-02-02T00:50:52.370Z,11.35
2019-02-02T00:51:58.000Z,11.12
2019-02-02T00:53:03.514Z,11.55
2019-02-02T00:54:08.832Z,11.78
2019-02-02T00:55:15.183Z,12.45
2019-02-02T00:56:20.177Z,12.05
2019-02-02T00:57:25.461Z,11.97
2019-02-02T00:58:30.477Z,12.03
2019-02-02T00:59:35.483Z,12.20
2019-02-02T01:00:40.476Z,13.03
2019-02-02T01:01:45.747Z,12.45
2019-02-02T01:02:50.838Z,11.18
2019-02-02T01:03:56.165Z,11.95
2019-02-02T01:05:01.582Z,11.45
2019-02-02T01:06:07.184Z,11.70
2019-02-02T01:07:12.839Z,12.82
2019-02-02T01:08:17.912Z,12.60
2019-02-02T01:09:25.757Z,11.88
2019-02-02T01:10:32.486Z,11.88
2019-02-02T01:11:37.631Z,14.10
2019-02-02T01:12:43.081Z,12.65
2019-02-02T01:13:48.139Z,10.18
2019-02-02T01:14:53.130Z,12.47
2019-02-02T01:15:58.174Z,12.30
2019-02-02T01:17:03.242Z,12.35
2019-02-02T01:18:08.973Z,11.95
2019-02-02T01:19:14.369Z,12.20
2019-02-02T01:20:20.985Z,11.85
2019-02-02T01:21:26.372Z,11.18
2019-02-02T01:22:31.672Z,12.03
2019-02-02T01:23:36.689Z,11.80
2019-02-02T01:24:43.209Z,11.35
2019-02-02T01:25:48.243Z,11.83
2019-02-02T01:26:53.637Z,12.23
2019-02-02T01:28:05.259Z,11.85
2019-02-02T01:29:05.874Z,12.68
2019-02-02T01:30:12.989Z,11.97
2019-02-02T01:31:18.090Z,10.80
2019-02-02T01:32:23.467Z,13.10
2019-02-02T01:33:28.570Z,10.35
2019-02-02T01:34:33.644Z,11.63
2019-02-02T01:35:39.070Z,12.75
2019-02-02T01:36:44.191Z,11.48
2019-02-02T01:37:50.855Z,11.75
2019-02-02T01:38:56.518Z,13.43
2019-02-02T01:40:01.835Z,12.05
2019-02-02T01:41:07.516Z,11.45
2019-02-02T01:42:12.728Z,12.23
2019-02-02T01:43:17.879Z,11.75
2019-02-02T01:44:22.891Z,11.48
2019-02-02T01:45:28.415Z,11.15
2019-02-02T01:46:33.864Z,11.40
2019-02-02T01:47:39.025Z,12.13
2019-02-02T01:48:44.185Z,10.98
2019-02-02T01:49:49.820Z,9.65
2019-02-02T01:50:55.518Z,11.68
2019-02-02T01:52:00.536Z,10.40
2019-02-02T01:53:05.996Z,10.88
2019-02-02T01:54:11.071Z,10.85
2019-02-02T01:55:16.463Z,10.82
2019-02-02T01:56:21.460Z,11.63
2019-02-02T01:57:27.873Z,11.10
2019-02-02T01:58:32.985Z,10.65
2019-02-02T01:59:38.034Z,10.90
2019-02-02T02:00:43.025Z,9.85
2019-02-02T02:01:48.004Z,10.35
2019-02-02T02:02:53.320Z,11.20
2019-02-02T02:03:58.578Z,10.68
2019-02-02T02:05:03.704Z,10.72
2019-02-02T02:06:09.137Z,10.15
2019-02-02T02:07:14.165Z,9.75
2019-02-02T02:08:19.554Z,9.85
2019-02-02T02:09:24.506Z,10.23
2019-02-02T02:10:29.889Z,10.55
2019-02-02T02:11:35.326Z,11.28
2019-02-02T02:12:40.992Z,11.90
2019-02-02T02:13:46.582Z,10.72
2019-02-02T02:14:51.605Z,9.50
2019-02-02T02:15:56.657Z,10.08
2019-02-02T02:17:01.613Z,10.28
2019-02-02T02:18:07.163Z,9.40
2019-02-02T02:19:12.182Z,10.08
2019-02-02T02:20:18.437Z,10.55
2019-02-02T02:21:23.815Z,9.75
2019-02-02T02:22:28.868Z,10.03
2019-02-02T02:23:34.192Z,10.65
2019-02-02T02:24:39.628Z,9.78
2019-02-02T02:25:44.573Z,11.25
2019-02-02T02:26:49.915Z,11.10
2019-02-02T02:27:54.910Z,10.55
2019-02-02T02:29:00.344Z,10.58
2019-02-02T02:30:06.833Z,10.15
2019-02-02T02:31:12.240Z,11.40
2019-02-02T02:32:17.238Z,10.93
2019-02-02T02:33:22.619Z,11.75
2019-02-02T02:34:27.900Z,11.20
2019-02-02T02:35:33.299Z,11.93
2019-02-02T02:36:38.481Z,10.90
2019-02-02T02:37:44.177Z,11.30
2019-02-02T02:38:52.833Z,11.45
2019-02-02T02:39:57.957Z,12.00
2019-02-02T02:41:03.003Z,11.50
2019-02-02T02:42:08.298Z,11.65
2019-02-02T02:43:13.433Z,12.82
2019-02-02T02:44:18.736Z,10.93
2019-02-02T02:45:23.748Z,11.12
2019-02-02T02:46:28.696Z,11.35
2019-02-02T02:47:34.529Z,12.50
2019-02-02T02:48:39.853Z,11.28
2019-02-02T02:49:45.368Z,11.30
2019-02-02T02:50:50.677Z,12.85
2019-02-02T02:51:56.425Z,12.63
2019-02-02T02:53:01.346Z,12.20
2019-02-02T02:54:07.253Z,12.98
2019-02-02T02:55:13.212Z,12.15
2019-02-02T02:56:18.908Z,11.40
2019-02-02T02:57:24.234Z,11.65
2019-02-02T02:58:40.999Z,11.65
2019-02-02T02:59:37.480Z,12.50
2019-02-02T03:00:42.573Z,14.33
2019-02-02T03:01:47.645Z,12.95
2019-02-02T03:02:52.858Z,12.75
2019-02-02T03:03:58.065Z,12.30
2019-02-02T03:05:03.099Z,11.65
2019-02-02T03:06:08.086Z,11.78
2019-02-02T03:07:13.028Z,12.20
2019-02-02T03:08:18.131Z,12.53
2019-02-02T03:09:26.170Z,12.85
2019-02-02T03:10:31.280Z,12.28
2019-02-02T03:11:36.312Z,12.10
2019-02-02T03:12:41.804Z,11.20
2019-02-02T03:13:47.525Z,12.63
2019-02-02T03:14:52.770Z,11.90
2019-02-02T03:15:57.795Z,11.90
2019-02-02T03:17:03.172Z,11.25
2019-02-02T03:18:08.255Z,13.22
2019-02-02T03:19:14.046Z,12.53
2019-02-02T03:20:19.462Z,13.25
2019-02-02T03:21:24.759Z,12.73
2019-02-02T03:22:30.342Z,13.10
2019-02-02T03:23:35.671Z,12.53
2019-02-02T03:24:40.597Z,13.00
2019-02-02T03:25:47.172Z,12.20
2019-02-02T03:26:52.340Z,11.65
2019-02-02T03:27:57.419Z,12.75
2019-02-02T03:29:03.092Z,12.20
2019-02-02T03:30:10.828Z,12.90
2019-02-02T03:31:15.860Z,12.68
2019-02-02T03:32:24.009Z,12.13
2019-02-02T03:33:29.334Z,12.80
2019-02-02T03:34:34.376Z,11.60
2019-02-02T03:35:39.409Z,11.90
2019-02-02T03:36:44.744Z,12.85
2019-02-02T03:37:50.087Z,14.25
2019-02-02T03:38:55.398Z,13.48
2019-02-02T03:40:00.440Z,13.50
2019-02-02T03:41:06.004Z,11.90
2019-02-02T03:42:11.020Z,12.37
2019-02-02T03:43:16.674Z,12.88
2019-02-02T03:44:22.161Z,13.28
2019-02-02T03:45:27.147Z,13.08
2019-02-02T03:46:32.728Z,12.95
2019-02-02T03:47:37.990Z,11.65
2019-02-02T03:48:43.772Z,13.78
2019-02-02T03:49:48.974Z,14.30
2019-02-02T03:50:54.066Z,12.70
2019-02-02T03:51:59.035Z,13.53
2019-02-02T03:53:04.235Z,12.50
2019-02-02T03:54:09.661Z,13.60
2019-02-02T03:55:15.210Z,12.85
2019-02-02T03:56:20.325Z,14.28
2019-02-02T03:57:25.341Z,12.82
2019-02-02T03:58:30.513Z,14.75
2019-02-02T03:59:35.939Z,13.70
2019-02-02T04:00:41.313Z,13.85
2019-02-02T04:01:47.446Z,14.73
2019-02-02T04:02:52.461Z,12.98
2019-02-02T04:03:57.750Z,13.43
2019-02-02T04:05:02.997Z,13.18
2019-02-02T04:06:07.997Z,12.55
2019-02-02T04:07:13.112Z,13.22
2019-02-02T04:08:18.059Z,14.10
2019-02-02T04:09:23.150Z,14.00
2019-02-02T04:10:28.390Z,12.75
2019-02-02T04:11:33.967Z,14.15
2019-02-02T04:12:39.090Z,14.85
2019-02-02T04:13:44.286Z,13.80
2019-02-02T04:14:49.276Z,13.70
2019-02-02T04:15:54.205Z,13.72
2019-02-02T04:16:59.497Z,14.33
2019-02-02T04:18:04.640Z,13.70
2019-02-02T04:19:09.818Z,14.05
2019-02-02T04:20:16.981Z,12.90
2019-02-02T04:21:22.030Z,13.95
2019-02-02T04:22:27.035Z,14.07
2019-02-02T04:23:32.350Z,13.18
2019-02-02T04:24:37.630Z,13.15
2019-02-02T04:25:43.342Z,14.10
2019-02-02T04:26:49.031Z,15.58
2019-02-02T04:27:54.388Z,14.20
2019-02-02T04:28:59.736Z,14.68
2019-02-02T04:30:07.104Z,14.07
2019-02-02T04:31:12.599Z,13.55
2019-02-02T04:32:18.608Z,13.88
2019-02-02T04:33:23.769Z,14.90
2019-02-02T04:34:28.982Z,14.93
2019-02-02T04:35:34.501Z,13.75
2019-02-02T04:36:39.531Z,13.75
2019-02-02T04:37:44.661Z,14.53
2019-02-02T04:38:50.348Z,13.90
2019-02-02T04:39:55.568Z,14.18
2019-02-02T04:41:00.615Z,13.80
2019-02-02T04:42:05.687Z,14.83
2019-02-02T04:43:12.201Z,13.65
2019-02-02T04:44:17.167Z,14.87
2019-02-02T04:45:22.415Z,13.90
2019-02-02T04:46:27.437Z,14.20
2019-02-02T04:47:33.104Z,13.70
2019-02-02T04:48:38.108Z,13.75
2019-02-02T04:49:43.297Z,14.55
2019-02-02T04:50:49.015Z,13.98
2019-02-02T04:51:54.433Z,14.73
2019-02-02T04:52:59.525Z,15.43
2019-02-02T04:54:04.878Z,14.40
2019-02-02T04:55:10.740Z,15.03
2019-02-02T04:56:15.721Z,15.38
2019-02-02T04:57:20.777Z,14.83
2019-02-02T04:58:26.195Z,15.18
2019-02-02T04:59:31.490Z,14.00
2019-02-02T05:00:36.881Z,14.30
2019-02-02T05:01:42.266Z,14.10
2019-02-02T05:02:47.474Z,15.20
2019-02-02T05:03:54.252Z,15.13
2019-02-02T05:04:59.282Z,14.10
2019-02-02T05:06:04.280Z,15.98
2019-02-02T05:07:09.350Z,14.78
2019-02-02T05:08:14.558Z,16.42
2019-02-02T05:09:19.784Z,15.15
2019-02-02T05:10:25.099Z,15.65
2019-02-02T05:11:30.864Z,15.70
2019-02-02T05:12:38.698Z,16.62
2019-02-02T05:13:43.645Z,14.98
2019-02-02T05:14:48.733Z,15.13
2019-02-02T05:15:53.857Z,14.18
2019-02-02T05:16:59.975Z,15.93
2019-02-02T05:18:05.385Z,15.25
2019-02-02T05:19:10.410Z,15.05
2019-02-02T05:20:15.967Z,15.72
2019-02-02T05:21:21.002Z,16.23
2019-02-02T05:22:26.084Z,16.00
2019-02-02T05:23:31.321Z,14.55
2019-02-02T05:24:36.878Z,15.78
2019-02-02T05:25:41.917Z,15.88
2019-02-02T05:26:47.711Z,17.80
2019-02-02T05:27:53.103Z,15.45
2019-02-02T05:28:58.222Z,15.48
2019-02-02T05:30:03.285Z,16.50
2019-02-02T05:31:08.383Z,15.80
2019-02-02T05:32:13.469Z,14.80
2019-02-02T05:33:18.838Z,15.40
2019-02-02T05:34:24.014Z,17.50
2019-02-02T05:35:29.503Z,15.13
2019-02-02T05:36:34.794Z,16.67
2019-02-02T05:37:40.684Z,15.85
2019-02-02T05:38:45.704Z,16.23
2019-02-02T05:39:50.972Z,15.43
2019-02-02T05:40:56.208Z,16.07
2019-02-02T05:42:01.725Z,14.58
2019-02-02T05:43:07.643Z,16.40
2019-02-02T05:44:12.719Z,15.43
2019-02-02T05:45:19.584Z,15.08
2019-02-02T05:46:24.540Z,15.35
2019-02-02T05:47:29.862Z,14.60
2019-02-02T05:48:35.280Z,13.62
2019-02-02T05:49:40.201Z,13.65
2019-02-02T05:50:45.483Z,15.28
2019-02-02T05:51:50.464Z,14.83
2019-02-02T05:52:56.174Z,15.13
2019-02-02T05:54:01.193Z,13.48
2019-02-02T05:55:08.152Z,14.23
2019-02-02T05:56:13.163Z,14.40
2019-02-02T05:57:18.173Z,14.60
2019-02-02T05:58:23.608Z,14.43
2019-02-02T05:59:28.954Z,13.93
2019-02-02T06:00:53.999Z,13.88
2019-02-02T06:01:59.046Z,13.22
2019-02-02T06:03:04.487Z,14.00
2019-02-02T06:04:09.731Z,12.60
2019-02-02T06:05:14.848Z,13.72
2019-02-02T06:06:20.981Z,13.32
2019-02-02T06:07:26.252Z,13.85
2019-02-02T06:08:31.236Z,13.40
2019-02-02T06:09:36.619Z,11.75
2019-02-02T06:10:44.939Z,13.38
2019-02-02T06:11:50.342Z,13.00
2019-02-02T06:12:55.945Z,14.70
2019-02-02T06:14:01.127Z,13.58
2019-02-02T06:15:06.551Z,11.78
2019-02-02T06:16:11.907Z,12.95
2019-02-02T06:17:16.846Z,11.55
2019-02-02T06:18:21.881Z,11.88
2019-02-02T06:19:27.151Z,12.78
2019-02-02T06:20:32.542Z,11.95
2019-02-02T06:21:37.789Z,12.53
2019-02-02T06:22:43.130Z,12.23
2019-02-02T06:23:48.204Z,12.30
2019-02-02T06:24:53.523Z,12.55
2019-02-02T06:25:58.538Z,12.93
2019-02-02T06:27:03.562Z,12.05
2019-02-02T06:28:08.953Z,12.13
2019-02-02T06:29:13.936Z,12.90
2019-02-02T06:30:19.546Z,12.03
2019-02-02T06:31:24.624Z,10.82
2019-02-02T06:32:29.603Z,11.50
2019-02-02T06:33:35.026Z,12.03
2019-02-02T06:34:40.018Z,12.05
2019-02-02T06:35:45.664Z,11.57
2019-02-02T06:36:50.667Z,11.15
2019-02-02T06:37:55.946Z,11.60
2019-02-02T06:39:01.017Z,10.95
2019-02-02T06:40:06.388Z,11.70
2019-02-02T06:41:11.350Z,10.78
2019-02-02T06:42:16.706Z,12.03
2019-02-02T06:43:21.711Z,11.12
2019-02-02T06:44:26.956Z,10.05
2019-02-02T06:45:34.164Z,10.08
2019-02-02T06:46:43.562Z,10.20
2019-02-02T06:47:46.392Z,9.93
2019-02-02T06:48:51.767Z,9.60
2019-02-02T06:49:57.004Z,10.08
2019-02-02T06:51:02.483Z,11.40
2019-02-02T06:52:08.066Z,11.75
2019-02-02T06:53:13.918Z,10.32
2019-02-02T06:54:18.910Z,10.78
2019-02-02T06:55:24.383Z,10.98
2019-02-02T06:56:29.311Z,11.22
2019-02-02T06:57:34.992Z,11.68
2019-02-02T06:58:40.291Z,10.00
2019-02-02T06:59:45.330Z,10.10
2019-02-02T07:00:50.815Z,9.75
2019-02-02T07:01:58.106Z,12.13
2019-02-02T07:03:03.220Z,11.03
2019-02-02T07:04:08.523Z,10.65
2019-02-02T07:05:14.510Z,11.15
2019-02-02T07:06:19.527Z,10.35
2019-02-02T07:07:24.531Z,10.55
2019-02-02T07:08:30.541Z,11.48
2019-02-02T07:09:36.889Z,10.68
2019-02-02T07:10:41.963Z,10.38
2019-02-02T07:11:46.913Z,10.65
2019-02-02T07:12:52.252Z,12.78
2019-02-02T07:13:57.948Z,13.00
2019-02-02T07:15:02.981Z,10.68
2019-02-02T07:16:08.152Z,12.50
2019-02-02T07:17:13.527Z,11.75
2019-02-02T07:18:19.003Z,10.35
2019-02-02T07:19:24.703Z,11.12
2019-02-02T07:20:30.111Z,11.22
2019-02-02T07:21:35.487Z,10.85
2019-02-02T07:22:40.576Z,11.40
2019-02-02T07:23:45.854Z,10.93
2019-02-02T07:24:50.853Z,10.48
2019-02-02T07:25:55.864Z,11.25
2019-02-02T07:27:00.967Z,10.38
2019-02-02T07:28:06.040Z,11.73
2019-02-02T07:29:10.964Z,10.98
2019-02-02T07:30:28.188Z,11.10
2019-02-02T07:31:27.689Z,13.13
2019-02-02T07:32:33.989Z,11.60
2019-02-02T07:33:39.047Z,12.90
2019-02-02T07:34:44.165Z,13.58
2019-02-02T07:35:49.219Z,12.10
2019-02-02T07:36:54.207Z,11.78
2019-02-02T07:37:59.256Z,12.60
2019-02-02T07:39:07.487Z,12.98
2019-02-02T07:40:14.650Z,11.90
2019-02-02T07:41:19.600Z,13.55
2019-02-02T07:42:24.606Z,12.60
2019-02-02T07:43:29.690Z,13.10
2019-02-02T07:44:34.954Z,12.75
2019-02-02T07:45:40.006Z,14.65
2019-02-02T07:46:44.934Z,14.90
2019-02-02T07:47:50.011Z,12.60
2019-02-02T07:48:55.049Z,13.50
2019-02-02T07:50:00.054Z,13.13
2019-02-02T07:51:05.580Z,12.95
2019-02-02T07:52:10.873Z,13.60
2019-02-02T07:53:18.612Z,13.98
2019-02-02T07:54:23.934Z,14.53
2019-02-02T07:55:29.177Z,13.40
2019-02-02T07:56:34.822Z,14.65
2019-02-02T07:57:40.065Z,14.83
2019-02-02T07:58:45.349Z,13.85
2019-02-02T07:59:50.500Z,13.70
2019-02-02T08:00:55.618Z,12.75
2019-02-02T08:02:00.892Z,13.65
2019-02-02T08:03:09.177Z,14.43
2019-02-02T08:04:14.263Z,13.13
2019-02-02T08:05:19.944Z,13.08
2019-02-02T08:06:24.942Z,13.90
2019-02-02T08:07:29.950Z,13.98
2019-02-02T08:08:35.056Z,14.60
2019-02-02T08:09:40.045Z,14.07
2019-02-02T08:10:46.586Z,13.60
2019-02-02T08:11:51.778Z,14.47
2019-02-02T08:12:57.051Z,14.03
2019-02-02T08:14:02.190Z,14.03
2019-02-02T08:15:09.347Z,13.90
2019-02-02T08:16:14.288Z,14.18
2019-02-02T08:17:19.241Z,15.25
2019-02-02T08:18:24.540Z,13.30
2019-02-02T08:19:29.811Z,14.40
2019-02-02T08:20:35.114Z,14.15
2019-02-02T08:21:40.221Z,14.28
2019-02-02T08:22:45.438Z,15.50
2019-02-02T08:23:50.773Z,15.08
2019-02-02T08:24:56.061Z,13.05
2019-02-02T08:26:01.068Z,14.80
2019-02-02T08:27:06.430Z,15.95
2019-02-02T08:28:11.388Z,15.23
2019-02-02T08:29:16.755Z,14.68
2019-02-02T08:30:26.897Z,14.50
2019-02-02T08:31:32.495Z,14.85
2019-02-02T08:32:37.892Z,14.50
2019-02-02T08:33:45.336Z,14.43
2019-02-02T08:34:49.998Z,15.45
2019-02-02T08:35:55.389Z,15.93
2019-02-02T08:37:00.453Z,14.63
2019-02-02T08:38:06.430Z,14.90
2019-02-02T08:39:11.538Z,12.85
2019-02-02T08:40:17.330Z,15.35
2019-02-02T08:41:22.786Z,15.53
2019-02-02T08:42:27.890Z,14.63
2019-02-02T08:43:33.236Z,16.62
2019-02-02T08:44:38.436Z,15.75
2019-02-02T08:45:44.225Z,15.20
2019-02-02T08:46:49.259Z,16.77
2019-02-02T08:47:54.565Z,16.97
2019-02-02T08:48:59.780Z,16.35
2019-02-02T08:50:07.383Z,15.78
2019-02-02T08:51:12.872Z,16.30
2019-02-02T08:52:18.423Z,16.65
2019-02-02T08:53:24.173Z,17.02
2019-02-02T08:54:29.117Z,17.27
2019-02-02T08:55:35.471Z,18.05
2019-02-02T08:56:40.544Z,18.20
2019-02-02T08:57:46.264Z,18.50
2019-02-02T08:58:51.220Z,17.40
2019-02-02T08:59:59.752Z,19.32
2019-02-02T09:01:04.934Z,20.17
2019-02-02T09:02:10.053Z,19.57
2019-02-02T09:03:34.206Z,21.33
2019-02-02T09:04:39.328Z,19.77
2019-02-02T09:05:44.486Z,20.70
2019-02-02T09:06:49.882Z,21.15
2019-02-02T09:07:55.287Z,22.00
2019-02-02T09:09:00.342Z,21.25
2019-02-02T09:10:08.341Z,20.05
2019-02-02T09:11:13.717Z,20.80
2019-02-02T09:12:19.146Z,21.02
2019-02-02T09:13:25.412Z,20.82
2019-02-02T09:14:30.454Z,21.27
2019-02-02T09:15:36.080Z,21.55
2019-02-02T09:16:41.377Z,21.60
2019-02-02T09:17:46.577Z,22.87
2019-02-02T09:18:52.265Z,21.60
2019-02-02T09:19:57.194Z,20.15
2019-02-02T09:21:02.267Z,22.17
2019-02-02T09:22:07.375Z,21.25
2019-02-02T09:23:12.699Z,22.85
2019-02-02T09:24:17.666Z,21.82
2019-02-02T09:25:23.071Z,21.60
2019-02-02T09:26:28.067Z,24.00
2019-02-02T09:27:33.541Z,23.02
2019-02-02T09:28:38.543Z,22.07
2019-02-02T09:29:44.147Z,23.42
2019-02-02T09:30:49.278Z,23.80
2019-02-02T09:31:54.361Z,22.95
2019-02-02T09:32:59.450Z,23.52
2019-02-02T09:34:04.578Z,23.95
2019-02-02T09:35:09.955Z,22.73
2019-02-02T09:36:16.872Z,22.98
2019-02-02T09:37:22.032Z,23.22
2019-02-02T09:38:27.077Z,22.52
2019-02-02T09:39:32.346Z,23.22
2019-02-02T09:40:37.777Z,21.02
2019-02-02T09:41:43.224Z,23.00
2019-02-02T09:42:48.449Z,23.75
2019-02-02T09:43:53.751Z,24.07
2019-02-02T09:44:58.750Z,24.00
2019-02-02T09:46:04.775Z,23.98
2019-02-02T09:47:09.910Z,25.08
2019-02-02T09:48:14.904Z,24.90
2019-02-02T09:49:20.031Z,25.75
2019-02-02T09:50:25.543Z,24.02
2019-02-02T09:51:30.589Z,26.40
2019-02-02T09:52:36.407Z,28.23
2019-02-02T09:53:41.837Z,23.40
2019-02-02T09:54:47.212Z,24.47
2019-02-02T09:55:52.561Z,26.07
2019-02-02T09:56:57.924Z,25.48
2019-02-02T09:58:08.876Z,24.87
2019-02-02T09:59:14.012Z,27.50
2019-02-02T10:00:24.553Z,24.70
2019-02-02T10:01:29.846Z,23.07
2019-02-02T10:02:34.988Z,26.65
2019-02-02T10:03:40.099Z,26.17
2019-02-02T10:04:45.761Z,26.15
2019-02-02T10:05:50.975Z,25.17
2019-02-02T10:06:56.217Z,27.82
2019-02-02T10:08:01.331Z,25.30
2019-02-02T10:09:09.658Z,28.00
2019-02-02T10:10:19.947Z,29.57
2019-02-02T10:11:26.270Z,27.82
2019-02-02T10:12:31.831Z,26.97
2019-02-02T10:13:37.096Z,27.52
2019-02-02T10:14:43.220Z,25.25
2019-02-02T10:15:49.523Z,26.90
2019-02-02T10:16:54.745Z,29.63
2019-02-02T10:18:00.324Z,28.90
2019-02-02T10:19:06.228Z,30.57
2019-02-02T10:20:13.958Z,29.60
2019-02-02T10:21:19.187Z,30.30
2019-02-02T10:22:24.487Z,29.65
2019-02-02T10:23:29.667Z,29.85
2019-02-02T10:24:35.083Z,27.42
2019-02-02T10:25:41.160Z,30.37
2019-02-02T10:26:46.361Z,28.40
2019-02-02T10:27:53.091Z,29.45
2019-02-02T10:28:58.353Z,31.12
2019-02-02T10:30:04.188Z,29.98
2019-02-02T10:31:09.720Z,28.38
2019-02-02T10:32:14.962Z,25.65
2019-02-02T10:33:20.202Z,29.87
2019-02-02T10:34:25.547Z,29.98
2019-02-02T10:35:31.166Z,28.05
2019-02-02T10:36:36.216Z,29.32
2019-02-02T10:37:42.743Z,27.48
2019-02-02T10:38:48.015Z,30.10
2019-02-02T10:39:53.441Z,27.42
2019-02-02T10:40:59.043Z,28.20
2019-02-02T10:42:04.468Z,28.45
2019-02-02T10:43:13.093Z,29.98
2019-02-02T10:44:18.187Z,30.85
2019-02-02T10:45:23.377Z,30.77
2019-02-02T10:46:28.965Z,32.30
2019-02-02T10:47:35.691Z,31.07
2019-02-02T10:48:44.977Z,28.45
2019-02-02T10:49:50.393Z,28.55
2019-02-02T10:50:55.627Z,30.08
2019-02-02T10:52:02.493Z,30.82
2019-02-02T10:53:08.347Z,27.85
2019-02-02T10:54:13.884Z,30.05
2019-02-02T10:55:19.636Z,29.30
2019-02-02T10:56:25.167Z,30.77
2019-02-02T10:57:30.773Z,30.32
2019-02-02T10:58:36.003Z,30.48
2019-02-02T10:59:49.067Z,31.95
2019-02-02T11:00:54.581Z,30.75
2019-02-02T11:01:59.729Z,30.95
2019-02-02T11:03:05.519Z,34.05
2019-02-02T11:04:10.576Z,25.57
2019-02-02T11:05:16.514Z,32.88
2019-02-02T11:06:22.096Z,31.73
2019-02-02T11:07:27.769Z,30.95
2019-02-02T11:08:33.305Z,30.62
2019-02-02T11:09:38.785Z,31.17
2019-02-02T11:10:44.486Z,31.25
2019-02-02T11:11:49.720Z,29.75
2019-02-02T11:12:55.497Z,30.52
2019-02-02T11:14:00.728Z,32.03
2019-02-02T11:15:08.464Z,30.90
2019-02-02T11:16:13.776Z,31.17
2019-02-02T11:17:19.604Z,33.55
2019-02-02T11:18:24.894Z,32.10
2019-02-02T11:19:30.254Z,29.32
2019-02-02T11:20:36.306Z,27.75
2019-02-02T11:21:43.071Z,30.70
2019-02-02T11:22:48.906Z,32.35
2019-02-02T11:23:54.621Z,33.33
2019-02-02T11:24:59.921Z,31.40
2019-02-02T11:26:05.130Z,32.70
2019-02-02T11:27:12.546Z,30.48
2019-02-02T11:28:17.981Z,32.48
2019-02-02T11:29:23.745Z,31.55
2019-02-02T11:30:30.236Z,32.25
2019-02-02T11:31:36.175Z,26.80
2019-02-02T11:32:45.119Z,29.42
2019-02-02T11:33:51.044Z,32.35
2019-02-02T11:34:56.687Z,33.53
2019-02-02T11:36:01.803Z,32.28
2019-02-02T11:37:06.788Z,31.45
2019-02-02T11:38:11.822Z,34.18
2019-02-02T11:39:17.213Z,31.52
2019-02-02T11:40:26.377Z,32.98
2019-02-02T11:41:31.398Z,30.05
2019-02-02T11:42:36.452Z,33.67
2019-02-02T11:43:41.375Z,23.40
2019-02-02T11:44:46.709Z,34.23
2019-02-02T11:45:52.115Z,32.98
2019-02-02T11:46:57.175Z,33.00
2019-02-02T11:48:02.249Z,31.93
2019-02-02T11:49:07.264Z,35.83
2019-02-02T11:50:13.667Z,35.15
2019-02-02T11:51:18.882Z,31.93
2019-02-02T11:52:24.365Z,34.60
2019-02-02T11:53:29.358Z,29.10
2019-02-02T11:54:34.947Z,32.95
2019-02-02T11:55:40.030Z,34.00
2019-02-02T11:56:45.058Z,32.10
2019-02-02T11:57:50.329Z,35.90
2019-02-02T11:58:55.413Z,34.15
2019-02-02T12:00:00.674Z,34.27
2019-02-02T12:01:06.670Z,35.50
2019-02-02T12:02:14.882Z,27.85
2019-02-02T12:03:20.541Z,34.20
2019-02-02T12:04:26.153Z,29.65
2019-02-02T12:05:31.213Z,25.27
2019-02-02T12:06:36.811Z,33.23
2019-02-02T12:07:42.369Z,24.18
2019-02-02T12:08:49.331Z,33.20
2019-02-02T12:09:54.053Z,32.73
2019-02-02T12:10:59.082Z,36.55
2019-02-02T12:12:04.143Z,31.65
2019-02-02T12:13:09.146Z,34.38
2019-02-02T12:14:14.424Z,34.03
2019-02-02T12:15:20.059Z,29.35
2019-02-02T12:16:25.089Z,33.48
2019-02-02T12:17:30.225Z,31.42
2019-02-02T12:18:35.178Z,34.38
2019-02-02T12:19:41.234Z,31.75
2019-02-02T12:20:46.707Z,32.40
2019-02-02T12:21:52.066Z,30.30
2019-02-02T12:22:57.303Z,30.70
2019-02-02T12:24:13.381Z,32.98
2019-02-02T12:25:09.873Z,27.48
2019-02-02T12:26:15.250Z,30.10
2019-02-02T12:27:20.186Z,31.23
2019-02-02T12:28:25.291Z,28.05
2019-02-02T12:29:30.296Z,26.35
2019-02-02T12:30:36.320Z,30.20
2019-02-02T12:31:41.283Z,30.20
2019-02-02T12:32:46.379Z,27.02
2019-02-02T12:33:51.664Z,30.17
2019-02-02T12:34:56.959Z,30.75
2019-02-02T12:36:02.655Z,30.77
2019-02-02T12:37:07.818Z,31.95
2019-02-02T12:38:13.132Z,27.80
2019-02-02T12:41:24.464Z,28.20
2019-02-02T12:42:29.395Z,27.50
2019-02-02T12:43:34.901Z,22.80
2019-02-02T12:44:39.842Z,27.52
2019-02-02T12:45:50.487Z,29.72
2019-02-02T12:46:55.436Z,28.70
2019-02-02T12:48:00.576Z,30.62
2019-02-02T12:49:05.936Z,29.55
2019-02-02T12:50:12.360Z,31.70
2019-02-02T12:51:17.269Z,25.23
2019-02-02T12:52:25.302Z,30.72
2019-02-02T12:53:28.970Z,29.35
2019-02-02T12:54:33.961Z,30.40
2019-02-02T12:55:39.036Z,30.35
2019-02-02T12:56:43.979Z,29.90
2019-02-02T12:57:48.904Z,29.45
2019-02-02T12:58:54.225Z,26.97
2019-02-02T12:59:59.442Z,30.27
2019-02-02T13:01:04.529Z,29.60
2019-02-02T13:02:09.593Z,29.15
2019-02-02T13:03:14.515Z,28.40
2019-02-02T13:04:19.428Z,30.10
2019-02-02T13:05:24.826Z,30.90
2019-02-02T13:06:29.869Z,31.05
2019-02-02T13:07:34.894Z,29.98
2019-02-02T13:08:39.932Z,29.90
2019-02-02T13:09:45.186Z,30.20
2019-02-02T13:10:50.261Z,31.68
2019-02-02T13:11:56.176Z,31.33
2019-02-02T13:13:01.436Z,21.48
2019-02-02T13:14:06.524Z,28.80
2019-02-02T13:15:12.150Z,30.92
2019-02-02T13:16:17.353Z,29.55
2019-02-02T13:17:22.834Z,32.35
2019-02-02T13:18:27.739Z,33.70
2019-02-02T13:19:32.692Z,32.38
2019-02-02T13:20:37.764Z,32.55
2019-02-02T13:21:43.923Z,32.80
2019-02-02T13:22:49.211Z,28.67
2019-02-02T13:23:54.222Z,29.45
2019-02-02T13:24:59.154Z,30.37
2019-02-02T13:26:05.738Z,31.70
2019-02-02T13:27:10.715Z,31.15
2019-02-02T13:28:15.728Z,29.82
2019-02-02T13:29:20.659Z,31.30
2019-02-02T13:30:28.075Z,32.75
2019-02-02T13:31:33.116Z,30.97
2019-02-02T13:32:49.159Z,28.70
2019-02-02T13:33:44.867Z,30.72
2019-02-02T13:34:49.867Z,31.57
2019-02-02T13:35:54.863Z,30.43
2019-02-02T13:36:59.910Z,29.20
2019-02-02T13:38:05.744Z,28.92
2019-02-02T13:39:12.417Z,30.65
2019-02-02T13:40:19.125Z,29.98
2019-02-02T13:41:24.053Z,29.95
2019-02-02T13:42:29.049Z,27.95
2019-02-02T13:43:34.071Z,28.73
2019-02-02T13:44:39.142Z,31.85
2019-02-02T13:45:44.070Z,30.40
2019-02-02T13:46:49.058Z,29.57
2019-02-02T13:47:54.060Z,30.10
2019-02-02T13:48:58.968Z,30.77
2019-02-02T13:50:05.212Z,32.05
2019-02-02T13:51:10.589Z,33.50
2019-02-02T13:52:15.921Z,30.70
2019-02-02T13:53:21.262Z,30.15
2019-02-02T13:54:26.432Z,29.05
2019-02-02T13:55:31.503Z,32.93
2019-02-02T13:56:36.472Z,29.60
2019-02-02T13:57:42.004Z,31.33
2019-02-02T13:58:47.291Z,30.50
2019-02-02T13:59:52.239Z,33.35
2019-02-02T14:00:57.598Z,29.90
2019-02-02T14:02:02.562Z,30.35
2019-02-02T14:03:07.741Z,34.38
2019-02-02T14:04:12.796Z,32.95
2019-02-02T14:05:18.400Z,33.20
2019-02-02T14:06:23.429Z,36.00
2019-02-02T14:07:28.334Z,35.75